sensor_id;sensor_type;location;lat;lon;timestamp;temperature;humidity
6948;DHT22;3513;47.664;9.162;2023-06-26T00:00:45;19.00;70.50
6948;DHT22;3513;47.664;9.162;2023-06-26T00:03:13;19.00;71.00
6948;DHT22;3513;47.664;9.162;2023-06-26T00:05:40;18.90;70.90
6948;DHT22;3513;47.664;9.162;2023-06-26T00:08:06;18.90;70.60
6948;DHT22;3513;47.664;9.162;2023-06-26T00:10:32;18.80;70.40
6948;DHT22;3513;47.664;9.162;2023-06-26T00:12:58;18.80;70.70
6948;DHT22;3513;47.664;9.162;2023-06-26T00:15:23;18.80;70.70
6948;DHT22;3513;47.664;9.162;2023-06-26T00:17:49;18.80;70.80
6948;DHT22;3513;47.664;9.162;2023-06-26T00:20:16;18.70;70.50
6948;DHT22;3513;47.664;9.162;2023-06-26T00:22:43;18.70;70.50
6948;DHT22;3513;47.664;9.162;2023-06-26T00:25:08;18.70;70.70
6948;DHT22;3513;47.664;9.162;2023-06-26T00:27:34;18.60;70.70
6948;DHT22;3513;47.664;9.162;2023-06-26T00:29:59;18.60;70.60
6948;DHT22;3513;47.664;9.162;2023-06-26T00:32:25;18.60;70.90
6948;DHT22;3513;47.664;9.162;2023-06-26T00:34:50;18.60;71.30
6948;DHT22;3513;47.664;9.162;2023-06-26T00:37:17;18.70;72.40
6948;DHT22;3513;47.664;9.162;2023-06-26T00:39:43;18.60;72.10
6948;DHT22;3513;47.664;9.162;2023-06-26T00:42:08;18.60;72.70
6948;DHT22;3513;47.664;9.162;2023-06-26T00:44:34;18.50;73.30
6948;DHT22;3513;47.664;9.162;2023-06-26T00:46:59;18.50;73.50
6948;DHT22;3513;47.664;9.162;2023-06-26T00:49:26;18.40;73.60
6948;DHT22;3513;47.664;9.162;2023-06-26T00:51:52;18.40;74.50
6948;DHT22;3513;47.664;9.162;2023-06-26T00:54:19;18.30;74.70
6948;DHT22;3513;47.664;9.162;2023-06-26T00:56:48;18.30;75.00
6948;DHT22;3513;47.664;9.162;2023-06-26T00:59:14;18.20;75.30
6948;DHT22;3513;47.664;9.162;2023-06-26T01:01:40;18.20;75.70
6948;DHT22;3513;47.664;9.162;2023-06-26T01:04:11;18.20;76.10
6948;DHT22;3513;47.664;9.162;2023-06-26T01:06:45;18.10;76.30
6948;DHT22;3513;47.664;9.162;2023-06-26T01:09:16;18.10;76.50
6948;DHT22;3513;47.664;9.162;2023-06-26T01:11:41;18.10;77.20
6948;DHT22;3513;47.664;9.162;2023-06-26T01:14:07;18.20;78.10
6948;DHT22;3513;47.664;9.162;2023-06-26T01:16:33;18.20;78.30
6948;DHT22;3513;47.664;9.162;2023-06-26T01:18:59;18.10;78.70
6948;DHT22;3513;47.664;9.162;2023-06-26T01:21:25;18.00;79.20
6948;DHT22;3513;47.664;9.162;2023-06-26T01:26:36;17.90;80.90
6948;DHT22;3513;47.664;9.162;2023-06-26T01:29:06;17.80;81.10
6948;DHT22;3513;47.664;9.162;2023-06-26T01:31:33;17.80;81.70
6948;DHT22;3513;47.664;9.162;2023-06-26T01:33:59;17.70;82.10
6948;DHT22;3513;47.664;9.162;2023-06-26T01:36:26;17.70;82.50
6948;DHT22;3513;47.664;9.162;2023-06-26T01:38:52;17.70;83.50
6948;DHT22;3513;47.664;9.162;2023-06-26T01:41:18;17.70;84.00
6948;DHT22;3513;47.664;9.162;2023-06-26T01:44:11;17.70;84.50
6948;DHT22;3513;47.664;9.162;2023-06-26T01:47:01;17.70;84.90
6948;DHT22;3513;47.664;9.162;2023-06-26T01:52:40;17.60;86.60
6948;DHT22;3513;47.664;9.162;2023-06-26T01:55:17;17.60;86.60
6948;DHT22;3513;47.664;9.162;2023-06-26T01:57:47;17.60;87.80
6948;DHT22;3513;47.664;9.162;2023-06-26T02:00:14;17.50;88.20
6948;DHT22;3513;47.664;9.162;2023-06-26T02:02:44;17.50;88.70
6948;DHT22;3513;47.664;9.162;2023-06-26T02:05:09;17.50;89.60
6948;DHT22;3513;47.664;9.162;2023-06-26T02:07:35;17.50;90.10
6948;DHT22;3513;47.664;9.162;2023-06-26T02:10:01;17.50;90.40
6948;DHT22;3513;47.664;9.162;2023-06-26T02:12:27;17.50;90.50
6948;DHT22;3513;47.664;9.162;2023-06-26T02:14:53;17.50;90.80
6948;DHT22;3513;47.664;9.162;2023-06-26T02:17:18;17.50;91.00
6948;DHT22;3513;47.664;9.162;2023-06-26T02:19:44;17.40;91.20
6948;DHT22;3513;47.664;9.162;2023-06-26T02:22:14;17.40;91.50
6948;DHT22;3513;47.664;9.162;2023-06-26T02:24:40;17.30;91.80
6948;DHT22;3513;47.664;9.162;2023-06-26T02:27:06;17.30;91.90
6948;DHT22;3513;47.664;9.162;2023-06-26T02:29:32;17.30;92.20
6948;DHT22;3513;47.664;9.162;2023-06-26T02:31:57;17.40;92.50
6948;DHT22;3513;47.664;9.162;2023-06-26T02:34:23;17.40;92.70
6948;DHT22;3513;47.664;9.162;2023-06-26T02:36:49;17.30;92.90
6948;DHT22;3513;47.664;9.162;2023-06-26T02:39:14;17.30;93.20
6948;DHT22;3513;47.664;9.162;2023-06-26T02:41:40;17.30;93.40
6948;DHT22;3513;47.664;9.162;2023-06-26T02:44:06;17.30;93.60
6948;DHT22;3513;47.664;9.162;2023-06-26T02:46:32;17.30;93.70
6948;DHT22;3513;47.664;9.162;2023-06-26T02:48:58;17.30;93.80
6948;DHT22;3513;47.664;9.162;2023-06-26T02:51:24;17.20;93.90
6948;DHT22;3513;47.664;9.162;2023-06-26T02:53:50;17.20;94.00
6948;DHT22;3513;47.664;9.162;2023-06-26T02:56:15;17.10;94.20
6948;DHT22;3513;47.664;9.162;2023-06-26T02:58:41;17.10;94.30
6948;DHT22;3513;47.664;9.162;2023-06-26T03:01:06;17.10;94.50
6948;DHT22;3513;47.664;9.162;2023-06-26T03:03:32;17.10;94.60
6948;DHT22;3513;47.664;9.162;2023-06-26T03:06:06;17.00;94.90
6948;DHT22;3513;47.664;9.162;2023-06-26T03:08:32;17.00;95.40
6948;DHT22;3513;47.664;9.162;2023-06-26T03:10:58;17.00;95.60
6948;DHT22;3513;47.664;9.162;2023-06-26T03:13:23;17.10;95.80
6948;DHT22;3513;47.664;9.162;2023-06-26T03:15:49;17.00;95.90
6948;DHT22;3513;47.664;9.162;2023-06-26T03:18:15;17.00;96.10
6948;DHT22;3513;47.664;9.162;2023-06-26T03:20:40;17.00;96.20
6948;DHT22;3513;47.664;9.162;2023-06-26T03:23:06;17.00;96.40
6948;DHT22;3513;47.664;9.162;2023-06-26T03:25:31;17.00;96.60
6948;DHT22;3513;47.664;9.162;2023-06-26T03:27:57;16.90;96.70
6948;DHT22;3513;47.664;9.162;2023-06-26T03:30:23;16.90;96.90
6948;DHT22;3513;47.664;9.162;2023-06-26T03:32:48;16.90;97.20
6948;DHT22;3513;47.664;9.162;2023-06-26T03:35:14;16.90;97.30
6948;DHT22;3513;47.664;9.162;2023-06-26T03:37:40;16.90;97.40
6948;DHT22;3513;47.664;9.162;2023-06-26T03:40:06;16.90;97.70
6948;DHT22;3513;47.664;9.162;2023-06-26T03:42:31;16.80;97.70
6948;DHT22;3513;47.664;9.162;2023-06-26T03:44:57;16.80;97.80
6948;DHT22;3513;47.664;9.162;2023-06-26T03:47:23;16.90;98.00
6948;DHT22;3513;47.664;9.162;2023-06-26T03:49:48;16.90;97.90
6948;DHT22;3513;47.664;9.162;2023-06-26T03:52:14;16.80;97.80
6948;DHT22;3513;47.664;9.162;2023-06-26T03:54:39;16.80;97.90
6948;DHT22;3513;47.664;9.162;2023-06-26T03:57:05;16.80;97.90
6948;DHT22;3513;47.664;9.162;2023-06-26T03:59:30;16.90;98.00
6948;DHT22;3513;47.664;9.162;2023-06-26T04:01:56;16.90;98.00
6948;DHT22;3513;47.664;9.162;2023-06-26T04:04:22;16.90;98.00
6948;DHT22;3513;47.664;9.162;2023-06-26T04:06:47;16.90;97.90
6948;DHT22;3513;47.664;9.162;2023-06-26T04:09:13;16.90;97.90
6948;DHT22;3513;47.664;9.162;2023-06-26T04:11:39;16.90;97.80
6948;DHT22;3513;47.664;9.162;2023-06-26T04:14:04;17.00;97.80
6948;DHT22;3513;47.664;9.162;2023-06-26T04:16:30;17.00;97.70
6948;DHT22;3513;47.664;9.162;2023-06-26T04:18:55;17.10;98.10
6948;DHT22;3513;47.664;9.162;2023-06-26T04:21:22;17.20;97.60
6948;DHT22;3513;47.664;9.162;2023-06-26T04:23:50;17.20;97.90
6948;DHT22;3513;47.664;9.162;2023-06-26T04:26:16;17.20;98.10
6948;DHT22;3513;47.664;9.162;2023-06-26T04:28:42;17.20;98.10
6948;DHT22;3513;47.664;9.162;2023-06-26T04:31:08;17.30;98.10
6948;DHT22;3513;47.664;9.162;2023-06-26T04:33:37;17.40;98.20
6948;DHT22;3513;47.664;9.162;2023-06-26T04:36:06;17.40;98.10
6948;DHT22;3513;47.664;9.162;2023-06-26T04:38:32;17.50;98.10
6948;DHT22;3513;47.664;9.162;2023-06-26T04:40:59;17.60;97.90
6948;DHT22;3513;47.664;9.162;2023-06-26T04:43:24;17.60;97.70
6948;DHT22;3513;47.664;9.162;2023-06-26T04:45:50;17.70;97.80
6948;DHT22;3513;47.664;9.162;2023-06-26T04:48:15;17.80;98.30
6948;DHT22;3513;47.664;9.162;2023-06-26T04:50:41;17.90;98.00
6948;DHT22;3513;47.664;9.162;2023-06-26T04:53:07;18.00;98.40
6948;DHT22;3513;47.664;9.162;2023-06-26T04:55:33;18.00;98.70
6948;DHT22;3513;47.664;9.162;2023-06-26T04:57:58;18.10;98.90
6948;DHT22;3513;47.664;9.162;2023-06-26T05:00:24;18.20;98.70
6948;DHT22;3513;47.664;9.162;2023-06-26T05:02:51;18.20;98.70
6948;DHT22;3513;47.664;9.162;2023-06-26T05:05:26;18.30;98.60
6948;DHT22;3513;47.664;9.162;2023-06-26T05:07:53;18.30;98.50
6948;DHT22;3513;47.664;9.162;2023-06-26T05:10:19;18.40;98.30
6948;DHT22;3513;47.664;9.162;2023-06-26T05:12:44;18.40;97.90
6948;DHT22;3513;47.664;9.162;2023-06-26T05:15:10;18.50;97.90
6948;DHT22;3513;47.664;9.162;2023-06-26T05:17:35;18.60;97.80
6948;DHT22;3513;47.664;9.162;2023-06-26T05:20:01;18.70;97.80
6948;DHT22;3513;47.664;9.162;2023-06-26T05:22:27;18.80;97.60
6948;DHT22;3513;47.664;9.162;2023-06-26T05:24:54;18.80;97.50
6948;DHT22;3513;47.664;9.162;2023-06-26T05:27:20;18.90;97.80
6948;DHT22;3513;47.664;9.162;2023-06-26T05:29:48;19.00;97.70
6948;DHT22;3513;47.664;9.162;2023-06-26T05:32:16;19.10;97.90
6948;DHT22;3513;47.664;9.162;2023-06-26T05:34:47;19.20;98.10
6948;DHT22;3513;47.664;9.162;2023-06-26T05:37:18;19.20;98.40
6948;DHT22;3513;47.664;9.162;2023-06-26T05:39:45;19.20;98.20
6948;DHT22;3513;47.664;9.162;2023-06-26T05:42:11;19.30;98.00
6948;DHT22;3513;47.664;9.162;2023-06-26T05:44:37;19.40;98.00
6948;DHT22;3513;47.664;9.162;2023-06-26T05:47:03;19.50;97.90
6948;DHT22;3513;47.664;9.162;2023-06-26T05:49:28;19.60;97.80
6948;DHT22;3513;47.664;9.162;2023-06-26T05:51:54;19.70;98.20
6948;DHT22;3513;47.664;9.162;2023-06-26T05:54:20;19.80;98.20
6948;DHT22;3513;47.664;9.162;2023-06-26T05:56:47;19.90;97.60
6948;DHT22;3513;47.664;9.162;2023-06-26T05:59:14;20.00;97.30
6948;DHT22;3513;47.664;9.162;2023-06-26T06:01:41;20.00;97.10
6948;DHT22;3513;47.664;9.162;2023-06-26T06:04:07;20.10;97.20
6948;DHT22;3513;47.664;9.162;2023-06-26T06:06:32;20.20;97.10
6948;DHT22;3513;47.664;9.162;2023-06-26T06:08:58;20.30;97.30
6948;DHT22;3513;47.664;9.162;2023-06-26T06:11:23;20.40;96.70
6948;DHT22;3513;47.664;9.162;2023-06-26T06:13:49;20.50;96.50
6948;DHT22;3513;47.664;9.162;2023-06-26T06:16:15;20.50;96.20
6948;DHT22;3513;47.664;9.162;2023-06-26T06:18:40;20.60;96.10
6948;DHT22;3513;47.664;9.162;2023-06-26T06:21:06;20.70;96.00
6948;DHT22;3513;47.664;9.162;2023-06-26T06:23:31;20.70;95.30
6948;DHT22;3513;47.664;9.162;2023-06-26T06:25:57;20.80;95.40
6948;DHT22;3513;47.664;9.162;2023-06-26T06:28:22;20.90;95.50
6948;DHT22;3513;47.664;9.162;2023-06-26T06:30:48;20.90;94.90
6948;DHT22;3513;47.664;9.162;2023-06-26T06:33:14;20.90;94.60
6948;DHT22;3513;47.664;9.162;2023-06-26T06:35:39;21.10;93.70
6948;DHT22;3513;47.664;9.162;2023-06-26T06:38:05;21.10;93.30
6948;DHT22;3513;47.664;9.162;2023-06-26T06:40:31;21.10;92.90
6948;DHT22;3513;47.664;9.162;2023-06-26T06:42:56;21.20;92.90
6948;DHT22;3513;47.664;9.162;2023-06-26T06:45:22;21.30;92.90
6948;DHT22;3513;47.664;9.162;2023-06-26T06:47:47;21.40;92.70
6948;DHT22;3513;47.664;9.162;2023-06-26T06:50:13;21.40;92.50
6948;DHT22;3513;47.664;9.162;2023-06-26T06:52:42;21.50;92.30
6948;DHT22;3513;47.664;9.162;2023-06-26T06:55:08;21.70;92.00
6948;DHT22;3513;47.664;9.162;2023-06-26T06:57:38;21.70;92.00
6948;DHT22;3513;47.664;9.162;2023-06-26T07:00:10;21.80;91.70
6948;DHT22;3513;47.664;9.162;2023-06-26T07:02:37;21.80;91.50
6948;DHT22;3513;47.664;9.162;2023-06-26T07:05:03;21.80;91.70
6948;DHT22;3513;47.664;9.162;2023-06-26T07:07:30;22.00;91.60
6948;DHT22;3513;47.664;9.162;2023-06-26T07:10:02;22.10;91.60
6948;DHT22;3513;47.664;9.162;2023-06-26T07:12:28;22.30;90.90
6948;DHT22;3513;47.664;9.162;2023-06-26T07:14:54;22.50;90.70
6948;DHT22;3513;47.664;9.162;2023-06-26T07:17:20;22.60;90.40
6948;DHT22;3513;47.664;9.162;2023-06-26T07:19:47;22.60;90.00
6948;DHT22;3513;47.664;9.162;2023-06-26T07:22:12;22.70;89.20
6948;DHT22;3513;47.664;9.162;2023-06-26T07:24:38;22.80;88.90
6948;DHT22;3513;47.664;9.162;2023-06-26T07:27:03;22.90;87.50
6948;DHT22;3513;47.664;9.162;2023-06-26T07:29:29;23.10;87.20
6948;DHT22;3513;47.664;9.162;2023-06-26T07:31:54;23.30;87.10
6948;DHT22;3513;47.664;9.162;2023-06-26T07:34:20;23.40;85.20
6948;DHT22;3513;47.664;9.162;2023-06-26T07:36:46;23.60;84.70
6948;DHT22;3513;47.664;9.162;2023-06-26T07:39:11;23.70;83.70
6948;DHT22;3513;47.664;9.162;2023-06-26T07:41:37;23.80;81.70
6948;DHT22;3513;47.664;9.162;2023-06-26T07:44:02;23.90;81.80
6948;DHT22;3513;47.664;9.162;2023-06-26T07:46:28;24.00;81.50
6948;DHT22;3513;47.664;9.162;2023-06-26T07:48:54;24.10;78.50
6948;DHT22;3513;47.664;9.162;2023-06-26T07:51:20;24.10;79.10
6948;DHT22;3513;47.664;9.162;2023-06-26T07:53:45;24.30;78.50
6948;DHT22;3513;47.664;9.162;2023-06-26T07:56:11;24.40;76.90
6948;DHT22;3513;47.664;9.162;2023-06-26T07:58:36;24.50;76.90
6948;DHT22;3513;47.664;9.162;2023-06-26T08:01:02;24.50;77.50
6948;DHT22;3513;47.664;9.162;2023-06-26T08:03:28;24.70;76.00
6948;DHT22;3513;47.664;9.162;2023-06-26T08:05:53;24.80;74.70
6948;DHT22;3513;47.664;9.162;2023-06-26T08:08:19;24.80;75.10
6948;DHT22;3513;47.664;9.162;2023-06-26T08:10:45;25.00;74.90
6948;DHT22;3513;47.664;9.162;2023-06-26T08:13:10;25.10;75.90
6948;DHT22;3513;47.664;9.162;2023-06-26T08:15:36;25.20;77.00
6948;DHT22;3513;47.664;9.162;2023-06-26T08:18:01;25.30;77.30
6948;DHT22;3513;47.664;9.162;2023-06-26T08:20:27;25.40;77.10
6948;DHT22;3513;47.664;9.162;2023-06-26T08:22:53;25.50;76.50
6948;DHT22;3513;47.664;9.162;2023-06-26T08:25:20;25.50;75.40
6948;DHT22;3513;47.664;9.162;2023-06-26T08:27:45;25.60;75.60
6948;DHT22;3513;47.664;9.162;2023-06-26T08:30:11;25.70;75.60
6948;DHT22;3513;47.664;9.162;2023-06-26T08:32:37;25.90;73.30
6948;DHT22;3513;47.664;9.162;2023-06-26T08:35:03;25.90;71.80
6948;DHT22;3513;47.664;9.162;2023-06-26T08:37:28;25.90;72.10
6948;DHT22;3513;47.664;9.162;2023-06-26T08:39:54;25.90;72.50
6948;DHT22;3513;47.664;9.162;2023-06-26T08:42:19;26.00;73.10
6948;DHT22;3513;47.664;9.162;2023-06-26T08:44:45;26.10;70.90
6948;DHT22;3513;47.664;9.162;2023-06-26T08:47:11;26.20;69.10
6948;DHT22;3513;47.664;9.162;2023-06-26T08:52:35;26.30;66.60
6948;DHT22;3513;47.664;9.162;2023-06-26T08:55:03;26.50;65.80
6948;DHT22;3513;47.664;9.162;2023-06-26T08:57:32;26.40;67.60
6948;DHT22;3513;47.664;9.162;2023-06-26T08:59:58;26.60;66.40
6948;DHT22;3513;47.664;9.162;2023-06-26T09:02:24;26.50;65.80
6948;DHT22;3513;47.664;9.162;2023-06-26T09:04:50;26.50;65.20
6948;DHT22;3513;47.664;9.162;2023-06-26T09:07:16;26.50;62.60
6948;DHT22;3513;47.664;9.162;2023-06-26T09:09:42;26.60;62.70
6948;DHT22;3513;47.664;9.162;2023-06-26T09:12:09;26.50;61.60
6948;DHT22;3513;47.664;9.162;2023-06-26T09:14:36;26.50;62.10
6948;DHT22;3513;47.664;9.162;2023-06-26T09:17:02;26.60;63.30
6948;DHT22;3513;47.664;9.162;2023-06-26T09:19:27;26.70;62.00
6948;DHT22;3513;47.664;9.162;2023-06-26T09:21:55;26.70;61.70
6948;DHT22;3513;47.664;9.162;2023-06-26T09:24:21;26.80;60.70
6948;DHT22;3513;47.664;9.162;2023-06-26T09:26:48;27.00;60.10
6948;DHT22;3513;47.664;9.162;2023-06-26T09:29:15;27.10;61.40
6948;DHT22;3513;47.664;9.162;2023-06-26T09:31:43;27.20;61.10
6948;DHT22;3513;47.664;9.162;2023-06-26T09:34:09;27.30;61.30
6948;DHT22;3513;47.664;9.162;2023-06-26T09:36:35;27.30;59.30
6948;DHT22;3513;47.664;9.162;2023-06-26T09:39:05;27.30;59.20
6948;DHT22;3513;47.664;9.162;2023-06-26T09:41:35;27.40;58.10
6948;DHT22;3513;47.664;9.162;2023-06-26T09:44:02;27.50;58.60
6948;DHT22;3513;47.664;9.162;2023-06-26T09:46:29;27.50;58.30
6948;DHT22;3513;47.664;9.162;2023-06-26T09:49:10;27.70;57.80
6948;DHT22;3513;47.664;9.162;2023-06-26T09:51:38;27.60;57.90
6948;DHT22;3513;47.664;9.162;2023-06-26T09:54:05;27.70;58.20
6948;DHT22;3513;47.664;9.162;2023-06-26T09:56:31;27.80;58.10
6948;DHT22;3513;47.664;9.162;2023-06-26T09:58:59;28.10;57.80
6948;DHT22;3513;47.664;9.162;2023-06-26T10:01:27;28.30;54.40
6948;DHT22;3513;47.664;9.162;2023-06-26T10:03:54;28.50;53.20
6948;DHT22;3513;47.664;9.162;2023-06-26T10:06:32;28.70;53.30
6948;DHT22;3513;47.664;9.162;2023-06-26T10:09:00;28.80;51.40
6948;DHT22;3513;47.664;9.162;2023-06-26T10:11:33;29.00;52.10
6948;DHT22;3513;47.664;9.162;2023-06-26T10:14:01;29.10;51.80
6948;DHT22;3513;47.664;9.162;2023-06-26T10:16:28;29.20;49.40
6948;DHT22;3513;47.664;9.162;2023-06-26T10:19:02;29.30;50.00
6948;DHT22;3513;47.664;9.162;2023-06-26T10:21:29;29.30;49.40
6948;DHT22;3513;47.664;9.162;2023-06-26T10:23:56;29.20;48.70
6948;DHT22;3513;47.664;9.162;2023-06-26T10:26:24;29.20;48.50
6948;DHT22;3513;47.664;9.162;2023-06-26T10:28:52;29.20;48.10
6948;DHT22;3513;47.664;9.162;2023-06-26T10:31:25;29.20;48.20
6948;DHT22;3513;47.664;9.162;2023-06-26T10:33:52;29.40;48.60
6948;DHT22;3513;47.664;9.162;2023-06-26T10:36:30;29.50;48.60
6948;DHT22;3513;47.664;9.162;2023-06-26T10:38:57;29.60;49.20
6948;DHT22;3513;47.664;9.162;2023-06-26T10:41:24;29.40;49.00
6948;DHT22;3513;47.664;9.162;2023-06-26T10:44:07;29.40;48.20
6948;DHT22;3513;47.664;9.162;2023-06-26T10:46:48;29.40;47.20
6948;DHT22;3513;47.664;9.162;2023-06-26T10:49:14;29.60;45.80
6948;DHT22;3513;47.664;9.162;2023-06-26T10:51:46;29.60;45.50
6948;DHT22;3513;47.664;9.162;2023-06-26T10:54:15;29.70;46.90
6948;DHT22;3513;47.664;9.162;2023-06-26T10:59:17;29.90;45.00
6948;DHT22;3513;47.664;9.162;2023-06-26T11:01:44;30.00;45.00
6948;DHT22;3513;47.664;9.162;2023-06-26T11:04:09;29.80;44.50
6948;DHT22;3513;47.664;9.162;2023-06-26T11:06:39;29.80;45.20
6948;DHT22;3513;47.664;9.162;2023-06-26T11:14:20;29.90;44.50
6948;DHT22;3513;47.664;9.162;2023-06-26T11:16:45;29.90;44.50
6948;DHT22;3513;47.664;9.162;2023-06-26T11:19:12;29.70;45.70
6948;DHT22;3513;47.664;9.162;2023-06-26T11:21:38;29.70;46.60
6948;DHT22;3513;47.664;9.162;2023-06-26T11:24:07;29.80;46.60
6948;DHT22;3513;47.664;9.162;2023-06-26T11:26:40;29.90;47.40
6948;DHT22;3513;47.664;9.162;2023-06-26T11:29:07;30.00;46.50
6948;DHT22;3513;47.664;9.162;2023-06-26T11:31:34;29.90;46.50
6948;DHT22;3513;47.664;9.162;2023-06-26T11:34:06;29.90;46.30
6948;DHT22;3513;47.664;9.162;2023-06-26T11:36:36;29.90;45.10
6948;DHT22;3513;47.664;9.162;2023-06-26T11:39:06;29.90;45.40
6948;DHT22;3513;47.664;9.162;2023-06-26T11:41:33;30.20;44.90
6948;DHT22;3513;47.664;9.162;2023-06-26T11:44:04;30.30;43.80
6948;DHT22;3513;47.664;9.162;2023-06-26T11:46:30;30.40;42.40
6948;DHT22;3513;47.664;9.162;2023-06-26T11:48:56;30.50;40.40
6948;DHT22;3513;47.664;9.162;2023-06-26T11:51:22;30.60;40.50
6948;DHT22;3513;47.664;9.162;2023-06-26T11:53:48;30.70;40.50
6948;DHT22;3513;47.664;9.162;2023-06-26T11:56:17;30.70;41.10
6948;DHT22;3513;47.664;9.162;2023-06-26T11:58:59;30.80;41.50
6948;DHT22;3513;47.664;9.162;2023-06-26T12:01:36;31.00;42.20
6948;DHT22;3513;47.664;9.162;2023-06-26T12:04:06;31.00;41.00
6948;DHT22;3513;47.664;9.162;2023-06-26T12:06:34;30.90;40.90
6948;DHT22;3513;47.664;9.162;2023-06-26T12:09:02;30.90;43.00
6948;DHT22;3513;47.664;9.162;2023-06-26T12:11:32;31.20;43.10
6948;DHT22;3513;47.664;9.162;2023-06-26T12:13:59;31.30;41.80
6948;DHT22;3513;47.664;9.162;2023-06-26T12:16:27;31.40;40.10
6948;DHT22;3513;47.664;9.162;2023-06-26T12:19:01;31.40;40.80
6948;DHT22;3513;47.664;9.162;2023-06-26T12:24:02;31.30;40.20
6948;DHT22;3513;47.664;9.162;2023-06-26T12:26:28;31.40;40.70
6948;DHT22;3513;47.664;9.162;2023-06-26T12:29:10;31.30;40.20
6948;DHT22;3513;47.664;9.162;2023-06-26T12:31:40;31.30;40.70
6948;DHT22;3513;47.664;9.162;2023-06-26T12:34:12;31.30;41.40
6948;DHT22;3513;47.664;9.162;2023-06-26T12:36:43;31.50;41.70
6948;DHT22;3513;47.664;9.162;2023-06-26T12:39:10;31.80;41.60
6948;DHT22;3513;47.664;9.162;2023-06-26T12:41:53;32.10;41.40
6948;DHT22;3513;47.664;9.162;2023-06-26T12:44:26;32.00;40.60
6948;DHT22;3513;47.664;9.162;2023-06-26T12:46:57;31.80;39.70
6948;DHT22;3513;47.664;9.162;2023-06-26T12:51:57;31.20;40.30
6948;DHT22;3513;47.664;9.162;2023-06-26T12:54:22;31.10;41.20
6948;DHT22;3513;47.664;9.162;2023-06-26T12:56:48;30.90;41.00
6948;DHT22;3513;47.664;9.162;2023-06-26T12:59:14;30.70;41.90
6948;DHT22;3513;47.664;9.162;2023-06-26T13:01:39;30.60;42.20
6948;DHT22;3513;47.664;9.162;2023-06-26T13:04:05;30.50;42.90
6948;DHT22;3513;47.664;9.162;2023-06-26T13:06:31;30.60;42.60
6948;DHT22;3513;47.664;9.162;2023-06-26T13:08:58;30.80;41.90
6948;DHT22;3513;47.664;9.162;2023-06-26T13:11:23;31.10;42.50
6948;DHT22;3513;47.664;9.162;2023-06-26T13:13:49;31.40;43.40
6948;DHT22;3513;47.664;9.162;2023-06-26T13:16:15;31.70;43.90
6948;DHT22;3513;47.664;9.162;2023-06-26T13:18:41;32.00;46.10
6948;DHT22;3513;47.664;9.162;2023-06-26T13:21:07;31.90;47.30
6948;DHT22;3513;47.664;9.162;2023-06-26T13:23:32;31.90;47.30
6948;DHT22;3513;47.664;9.162;2023-06-26T13:25:58;31.80;45.40
6948;DHT22;3513;47.664;9.162;2023-06-26T13:28:24;31.70;44.80
6948;DHT22;3513;47.664;9.162;2023-06-26T13:30:49;31.60;44.30
6948;DHT22;3513;47.664;9.162;2023-06-26T13:33:15;31.60;44.10
6948;DHT22;3513;47.664;9.162;2023-06-26T13:35:41;31.60;44.90
6948;DHT22;3513;47.664;9.162;2023-06-26T13:38:06;31.70;45.50
6948;DHT22;3513;47.664;9.162;2023-06-26T13:40:32;31.70;44.90
6948;DHT22;3513;47.664;9.162;2023-06-26T13:42:58;31.60;44.80
6948;DHT22;3513;47.664;9.162;2023-06-26T13:45:25;31.50;44.50
6948;DHT22;3513;47.664;9.162;2023-06-26T13:47:51;31.50;44.60
6948;DHT22;3513;47.664;9.162;2023-06-26T13:50:19;31.60;42.60
6948;DHT22;3513;47.664;9.162;2023-06-26T13:52:44;31.60;43.20
6948;DHT22;3513;47.664;9.162;2023-06-26T13:55:10;31.50;44.70
6948;DHT22;3513;47.664;9.162;2023-06-26T13:57:36;31.50;44.10
6948;DHT22;3513;47.664;9.162;2023-06-26T14:00:09;31.60;43.50
6948;DHT22;3513;47.664;9.162;2023-06-26T14:02:35;31.90;43.10
6948;DHT22;3513;47.664;9.162;2023-06-26T14:05:00;32.10;42.60
6948;DHT22;3513;47.664;9.162;2023-06-26T14:07:26;32.20;42.70
6948;DHT22;3513;47.664;9.162;2023-06-26T14:09:51;32.30;44.10
6948;DHT22;3513;47.664;9.162;2023-06-26T14:12:17;32.30;44.50
6948;DHT22;3513;47.664;9.162;2023-06-26T14:14:43;32.40;43.60
6948;DHT22;3513;47.664;9.162;2023-06-26T14:17:09;32.20;43.30
6948;DHT22;3513;47.664;9.162;2023-06-26T14:19:39;32.30;43.00
6948;DHT22;3513;47.664;9.162;2023-06-26T14:22:06;32.40;43.40
6948;DHT22;3513;47.664;9.162;2023-06-26T14:24:31;32.40;44.10
6948;DHT22;3513;47.664;9.162;2023-06-26T14:26:57;32.50;44.00
6948;DHT22;3513;47.664;9.162;2023-06-26T14:29:23;32.60;44.90
6948;DHT22;3513;47.664;9.162;2023-06-26T14:31:49;32.60;44.70
6948;DHT22;3513;47.664;9.162;2023-06-26T14:34:14;32.60;44.70
6948;DHT22;3513;47.664;9.162;2023-06-26T14:36:40;32.70;43.70
6948;DHT22;3513;47.664;9.162;2023-06-26T14:39:05;33.00;42.20
6948;DHT22;3513;47.664;9.162;2023-06-26T14:41:31;32.90;41.70
6948;DHT22;3513;47.664;9.162;2023-06-26T14:44:03;32.70;41.10
6948;DHT22;3513;47.664;9.162;2023-06-26T14:46:32;32.30;42.30
6948;DHT22;3513;47.664;9.162;2023-06-26T14:48:58;32.00;41.90
6948;DHT22;3513;47.664;9.162;2023-06-26T14:51:24;32.10;42.50
6948;DHT22;3513;47.664;9.162;2023-06-26T14:53:51;31.90;42.60
6948;DHT22;3513;47.664;9.162;2023-06-26T14:56:20;31.90;43.10
6948;DHT22;3513;47.664;9.162;2023-06-26T14:58:46;31.80;43.20
6948;DHT22;3513;47.664;9.162;2023-06-26T15:01:14;31.70;43.50
6948;DHT22;3513;47.664;9.162;2023-06-26T15:03:45;31.80;43.90
6948;DHT22;3513;47.664;9.162;2023-06-26T15:06:11;32.30;42.30
6948;DHT22;3513;47.664;9.162;2023-06-26T15:08:37;32.80;41.90
6948;DHT22;3513;47.664;9.162;2023-06-26T15:11:02;33.00;41.70
6948;DHT22;3513;47.664;9.162;2023-06-26T15:13:28;32.80;40.60
6948;DHT22;3513;47.664;9.162;2023-06-26T15:15:54;32.90;40.10
6948;DHT22;3513;47.664;9.162;2023-06-26T15:18:20;33.10;40.00
6948;DHT22;3513;47.664;9.162;2023-06-26T15:20:46;33.30;39.60
6948;DHT22;3513;47.664;9.162;2023-06-26T15:23:13;33.40;39.80
6948;DHT22;3513;47.664;9.162;2023-06-26T15:25:39;33.60;38.60
6948;DHT22;3513;47.664;9.162;2023-06-26T15:28:06;33.80;38.40
6948;DHT22;3513;47.664;9.162;2023-06-26T15:30:32;33.60;37.90
6948;DHT22;3513;47.664;9.162;2023-06-26T15:32:58;33.60;36.90
6948;DHT22;3513;47.664;9.162;2023-06-26T15:35:24;33.80;37.00
6948;DHT22;3513;47.664;9.162;2023-06-26T15:38:07;34.00;37.00
6948;DHT22;3513;47.664;9.162;2023-06-26T15:40:33;34.20;37.00
6948;DHT22;3513;47.664;9.162;2023-06-26T15:42:59;34.60;36.40
6948;DHT22;3513;47.664;9.162;2023-06-26T15:45:24;35.00;35.60
6948;DHT22;3513;47.664;9.162;2023-06-26T15:47:52;35.40;34.80
6948;DHT22;3513;47.664;9.162;2023-06-26T15:50:18;35.70;33.90
6948;DHT22;3513;47.664;9.162;2023-06-26T15:52:47;35.60;33.80
6948;DHT22;3513;47.664;9.162;2023-06-26T15:55:13;35.80;33.40
6948;DHT22;3513;47.664;9.162;2023-06-26T15:57:39;35.80;33.50
6948;DHT22;3513;47.664;9.162;2023-06-26T16:00:06;36.10;33.80
6948;DHT22;3513;47.664;9.162;2023-06-26T16:02:37;36.20;33.80
6948;DHT22;3513;47.664;9.162;2023-06-26T16:05:04;36.40;33.30
6948;DHT22;3513;47.664;9.162;2023-06-26T16:07:30;36.40;32.50
6948;DHT22;3513;47.664;9.162;2023-06-26T16:09:59;36.10;32.20
6948;DHT22;3513;47.664;9.162;2023-06-26T16:12:25;36.40;32.40
6948;DHT22;3513;47.664;9.162;2023-06-26T16:14:51;36.10;32.10
6948;DHT22;3513;47.664;9.162;2023-06-26T16:17:16;36.00;32.90
6948;DHT22;3513;47.664;9.162;2023-06-26T16:19:42;36.00;32.90
6948;DHT22;3513;47.664;9.162;2023-06-26T16:22:07;36.20;33.00